Time;durP1;ratioP1;P1;durP2;ratioP2;P2;SDS_P1;SDS_P2;PMS_P1;PMS_P2;Temp;Humidity;BMP_temperature;BMP_pressure;BME280_temperature;BME280_humidity;BME280_pressure;Samples;Min_cycle;Max_cycle;Signal;HPM_P1;HPM_P2
2021/11/23 00:01:22;;;;;;;;;;;;;;;3.11;100.00;100357.50;4991912;28;20005;-68
2021/11/23 00:03:47;;;;;;;;;;;;;;;3.07;100.00;100355.72;4999321;28;19925;-68
2021/11/23 00:06:16;;;;;;;;;;;;;;;2.98;100.00;100358.06;5014582;28;19920;-68
2021/11/23 00:08:42;;;;;;;;;;;;;;;3.05;100.00;100365.84;5019914;28;19936;-68
2021/11/23 00:11:08;;;;;;;;;;;;;;;3.05;100.00;100359.91;5035828;28;19920;-68
2021/11/23 00:13:34;;;;;;;;;;;;;;;2.98;100.00;100355.53;5037197;28;19920;-68
2021/11/23 00:15:59;;;;;;;;;;;;;;;2.77;100.00;100354.25;5039280;28;19924;-68
2021/11/23 00:18:25;;;;;;;;;;;;;;;3.01;100.00;100358.13;5043082;28;19917;-68
2021/11/23 00:20:50;;;;;;;;;;;;;;;2.86;100.00;100364.63;5042871;28;19920;-68
2021/11/23 00:23:15;;;;;;;;;;;;;;;3.11;100.00;100365.97;5042852;28;19917;-68
2021/11/23 00:25:42;;;;;;;;;;;;;;;3.05;100.00;100359.91;5041918;28;20034;-68
2021/11/23 00:28:08;;;;;;;;;;;;;;;2.87;100.00;100366.34;5025167;28;20092;-68
2021/11/23 00:30:35;;;;;;;;;;;;;;;2.81;100.00;100368.75;5023508;28;20105;-68
2021/11/23 00:33:04;;;;;;;;;;;;;;;2.82;100.00;100367.91;5039624;28;20311;-68
2021/11/23 00:35:32;;;;;;;;;;;;;;;2.83;100.00;100364.56;5040113;28;19917;-68
2021/11/23 00:37:57;;;;;;;;;;;;;;;2.95;100.00;100360.56;5023746;28;19947;-68
2021/11/23 00:40:23;;;;;;;;;;;;;;;2.97;100.00;100356.38;5024038;28;19921;-68
2021/11/23 00:42:51;;;;;;;;;;;;;;;2.73;100.00;100347.38;5023183;28;19943;-68
2021/11/23 00:45:24;;;;;;;;;;;;;;;2.63;100.00;100361.59;5041595;28;20912;-68
2021/11/23 00:47:49;;;;;;;;;;;;;;;2.72;100.00;100358.38;5041643;28;19917;-68
2021/11/23 00:50:16;;;;;;;;;;;;;;;2.58;100.00;100359.75;5041122;28;19935;-68
2021/11/23 00:52:42;;;;;;;;;;;;;;;2.98;100.00;100363.16;5042022;28;20050;-68
2021/11/23 00:55:07;;;;;;;;;;;;;;;2.40;100.00;100370.38;5040569;28;19943;-68
2021/11/23 00:57:33;;;;;;;;;;;;;;;2.44;100.00;100362.88;5038581;28;19929;-68
2021/11/23 00:59:59;;;;;;;;;;;;;;;2.57;100.00;100356.34;5040689;28;19924;-68
2021/11/23 01:02:27;;;;;;;;;;;;;;;2.37;100.00;100363.53;5036717;28;19921;-68
2021/11/23 01:04:53;;;;;;;;;;;;;;;2.57;100.00;100358.88;5007520;28;20050;-68
2021/11/23 01:07:24;;;;;;;;;;;;;;;2.55;100.00;100362.22;5040713;28;20281;-68
2021/11/23 01:09:50;;;;;;;;;;;;;;;2.55;100.00;100360.53;5026421;28;19924;-68
2021/11/23 01:12:15;;;;;;;;;;;;;;;2.65;100.00;100359.09;5040607;28;19979;-68
2021/11/23 01:14:43;;;;;;;;;;;;;;;2.45;100.00;100356.94;5021910;28;19925;-68
2021/11/23 01:17:08;;;;;;;;;;;;;;;2.44;100.00;100351.81;5041844;28;19931;-68
2021/11/23 01:19:40;;;;;;;;;;;;;;;2.68;100.00;100348.97;5039725;28;19920;-68
2021/11/23 01:22:06;;;;;;;;;;;;;;;2.40;100.00;100348.34;5037336;28;19964;-68
2021/11/23 01:24:33;;;;;;;;;;;;;;;2.40;100.00;100345.81;5021577;28;19994;-68
2021/11/23 01:26:59;;;;;;;;;;;;;;;2.40;100.00;100350.91;5041121;28;19929;-68
2021/11/23 01:29:24;;;;;;;;;;;;;;;2.20;100.00;100349.56;5040489;28;20438;-67
2021/11/23 01:31:51;;;;;;;;;;;;;;;2.29;100.00;100357.41;4981732;28;19965;-68
2021/11/23 01:34:19;;;;;;;;;;;;;;;2.37;100.00;100363.53;5000937;28;19922;-68
2021/11/23 01:36:52;;;;;;;;;;;;;;;2.02;100.00;100358.47;5000122;28;20452;-68
2021/11/23 01:39:22;;;;;;;;;;;;;;;2.19;100.00;100366.53;4982000;28;21905;-68
2021/11/23 01:41:47;;;;;;;;;;;;;;;2.39;100.00;100356.78;4999881;28;19921;-68
2021/11/23 01:44:13;;;;;;;;;;;;;;;2.58;100.00;100358.09;4999803;28;20863;-68
2021/11/23 01:46:40;;;;;;;;;;;;;;;2.45;100.00;100356.94;4998745;28;19924;-68
2021/11/23 01:49:06;;;;;;;;;;;;;;;2.48;100.00;100353.59;4998794;28;19921;-68
2021/11/23 01:51:32;;;;;;;;;;;;;;;2.28;100.00;100358.22;4998893;28;20000;-68
2021/11/23 01:53:57;;;;;;;;;;;;;;;2.56;100.00;100351.25;4970570;28;19933;-67
2021/11/23 01:56:25;;;;;;;;;;;;;;;2.37;100.00;100355.88;4999723;28;19921;-68
2021/11/23 01:58:58;;;;;;;;;;;;;;;2.29;100.00;100358.28;4976362;28;20392;-68
2021/11/23 02:01:23;;;;;;;;;;;;;;;2.50;100.00;100359.59;4982157;28;19988;-68
2021/11/23 02:03:49;;;;;;;;;;;;;;;2.70;100.00;100362.56;5000406;28;19960;-68
2021/11/23 02:06:14;;;;;;;;;;;;;;;2.75;100.00;100360.97;4998156;28;20802;-67
2021/11/23 02:08:47;;;;;;;;;;;;;;;2.49;100.00;100353.66;4980253;28;19926;-68
2021/11/23 02:11:16;;;;;;;;;;;;;;;2.63;100.00;100355.63;4997810;28;20008;-68
2021/11/23 02:13:41;;;;;;;;;;;;;;;2.39;100.00;100351.72;4999240;28;19995;-68
2021/11/23 02:16:07;;;;;;;;;;;;;;;2.59;100.00;100361.47;4998425;28;19995;-68
2021/11/23 02:18:32;;;;;;;;;;;;;;;2.57;100.00;100351.25;5000371;28;20699;-68
2021/11/23 02:21:17;;;;;;;;;;;;;;;2.46;100.00;100348.50;5001574;28;19968;-68
2021/11/23 02:23:43;;;;;;;;;;;;;;;2.41;100.00;100357.69;4998733;28;20020;-68
2021/11/23 02:26:09;;;;;;;;;;;;;;;2.40;100.00;100352.59;4999993;28;19924;-68
2021/11/23 02:28:35;;;;;;;;;;;;;;;2.49;100.00;100356.19;4997631;28;19984;-68
2021/11/23 02:31:01;;;;;;;;;;;;;;;2.59;100.00;100353.84;5007451;28;19933;-67
2021/11/23 02:33:27;;;;;;;;;;;;;;;2.20;100.00;100349.56;5020238;28;19948;-67
2021/11/23 02:35:53;;;;;;;;;;;;;;;2.19;100.00;100347.84;5020865;28;20363;-68
2021/11/23 02:38:24;;;;;;;;;;;;;;;2.43;100.00;100340.78;5039354;28;20015;-68
2021/11/23 02:40:51;;;;;;;;;;;;;;;2.22;100.00;100342.84;5017890;28;20019;-67
2021/11/23 02:43:16;;;;;;;;;;;;;;;2.18;100.00;100346.13;5020378;28;19925;-67
2021/11/23 02:45:42;;;;;;;;;;;;;;;2.34;100.00;100350.75;5021229;28;20394;-68
2021/11/23 02:48:08;;;;;;;;;;;;;;;2.03;100.00;100347.50;5019184;28;19924;-68
2021/11/23 02:50:34;;;;;;;;;;;;;;;2.30;100.00;100357.47;5037679;28;19956;-68
2021/11/23 02:53:02;;;;;;;;;;;;;;;2.45;100.00;100351.84;5019938;28;20006;-67
2021/11/23 02:55:29;;;;;;;;;;;;;;;2.42;100.00;100350.94;5038223;28;19917;-67
2021/11/23 02:57:54;;;;;;;;;;;;;;;2.62;100.00;100353.91;5021024;28;19931;-68
2021/11/23 03:00:21;;;;;;;;;;;;;;;2.29;100.00;100349.78;5037188;28;19917;-67
2021/11/23 03:02:47;;;;;;;;;;;;;;;2.59;100.00;100358.94;5019216;28;19932;-68
2021/11/23 03:05:13;;;;;;;;;;;;;;;2.63;100.00;100345.47;5020050;28;19920;-67
2021/11/23 03:07:48;;;;;;;;;;;;;;;2.71;100.00;100338.84;5038771;28;19930;-69
2021/11/23 03:10:13;;;;;;;;;;;;;;;2.62;100.00;100343.72;5036080;28;19928;-68
2021/11/23 03:12:40;;;;;;;;;;;;;;;2.49;100.00;100348.56;5037523;28;19917;-68
2021/11/23 03:15:15;;;;;;;;;;;;;;;2.84;100.00;100342.53;5019516;28;20647;-67
2021/11/23 03:17:43;;;;;;;;;;;;;;;2.65;100.00;100349.75;5033944;28;20376;-67
2021/11/23 03:20:10;;;;;;;;;;;;;;;2.78;100.00;100348.31;5036558;28;20037;-67
2021/11/23 03:22:36;;;;;;;;;;;;;;;2.64;100.00;100347.16;5036811;28;20042;-67
2021/11/23 03:25:02;;;;;;;;;;;;;;;2.67;100.00;100337.94;5034775;28;20560;-68
2021/11/23 03:27:33;;;;;;;;;;;;;;;2.68;100.00;100334.56;5020743;28;20000;-68
2021/11/23 03:29:58;;;;;;;;;;;;;;;2.98;100.00;100337.72;5037676;28;19990;-68
2021/11/23 03:32:24;;;;;;;;;;;;;;;2.96;100.00;100336.81;5037315;28;20013;-68
2021/11/23 03:34:50;;;;;;;;;;;;;;;3.04;100.00;100342.94;5037954;28;19928;-68
2021/11/23 03:37:19;;;;;;;;;;;;;;;2.95;100.00;100337.66;5037511;28;19917;-67
2021/11/23 03:39:46;;;;;;;;;;;;;;;2.98;100.00;100342.78;5037924;28;19947;-68
2021/11/23 03:42:11;;;;;;;;;;;;;;;3.09;100.00;100338.78;5035375;28;20424;-68
2021/11/23 03:44:44;;;;;;;;;;;;;;;3.06;100.00;100336.19;5037159;28;19921;-67
2021/11/23 03:47:13;;;;;;;;;;;;;;;3.44;100.00;100338.59;5021500;28;19920;-68
2021/11/23 03:49:44;;;;;;;;;;;;;;;3.31;100.00;100337.53;5038173;28;19931;-68
2021/11/23 03:52:09;;;;;;;;;;;;;;;3.35;100.00;100332.50;5024957;28;19956;-67
2021/11/23 03:54:40;;;;;;;;;;;;;;;3.53;100.00;100326.88;5041997;28;19955;-68
2021/11/23 03:57:07;;;;;;;;;;;;;;;3.35;100.00;100327.44;5027649;28;19925;-68
2021/11/23 03:59:32;;;;;;;;;;;;;;;3.19;100.00;100322.84;5025106;28;19925;-68
2021/11/23 04:02:01;;;;;;;;;;;;;;;3.39;100.00;100320.69;5023755;28;19931;-68
2021/11/23 04:04:27;;;;;;;;;;;;;;;3.42;100.00;100324.97;5043375;28;19925;-68
2021/11/23 04:06:53;;;;;;;;;;;;;;;3.57;100.00;100315.06;5041996;28;19920;-68
2021/11/23 04:09:18;;;;;;;;;;;;;;;3.60;100.00;100314.25;5042291;28;20807;-68
2021/11/23 04:11:44;;;;;;;;;;;;;;;3.51;100.00;100309.84;5042001;28;19917;-68
2021/11/23 04:14:09;;;;;;;;;;;;;;;3.62;100.00;100310.91;5043381;28;19982;-67
2021/11/23 04:16:34;;;;;;;;;;;;;;;3.50;100.00;100310.69;5041771;28;19991;-68
2021/11/23 04:19:00;;;;;;;;;;;;;;;3.49;100.00;100312.41;5042063;28;20474;-68
2021/11/23 04:21:25;;;;;;;;;;;;;;;3.62;100.00;100318.53;5043362;28;19924;-68
2021/11/23 04:23:51;;;;;;;;;;;;;;;3.70;100.00;100322.09;5042744;28;19983;-68
2021/11/23 04:26:16;;;;;;;;;;;;;;;3.63;100.00;100310.09;5042830;28;20426;-68
2021/11/23 04:28:41;;;;;;;;;;;;;;;3.54;100.00;100315.88;5043525;28;19963;-68
2021/11/23 04:31:07;;;;;;;;;;;;;;;3.62;100.00;100313.44;5043267;28;19967;-68
2021/11/23 04:33:32;;;;;;;;;;;;;;;3.77;100.00;100308.63;5043257;28;19994;-68
2021/11/23 04:35:58;;;;;;;;;;;;;;;3.66;100.00;100310.13;5043848;28;19920;-68
2021/11/23 04:38:23;;;;;;;;;;;;;;;3.48;100.00;100315.75;5043181;28;19970;-68
2021/11/23 04:40:50;;;;;;;;;;;;;;;3.69;100.00;100312.72;5042600;28;19921;-68
2021/11/23 04:43:19;;;;;;;;;;;;;;;3.65;100.00;100316.06;5042779;28;19963;-68
2021/11/23 04:45:45;;;;;;;;;;;;;;;3.69;100.00;100314.41;5042402;28;20297;-68
2021/11/23 04:48:18;;;;;;;;;;;;;;;3.79;100.00;100316.28;5043504;28;19956;-68
2021/11/23 04:50:49;;;;;;;;;;;;;;;3.66;100.00;100310.13;5026360;28;20196;-68
2021/11/23 04:53:14;;;;;;;;;;;;;;;3.73;100.00;100313.63;5024948;28;19921;-68
2021/11/23 04:55:44;;;;;;;;;;;;;;;3.88;100.00;100310.50;5027394;28;19913;-68
2021/11/23 04:58:09;;;;;;;;;;;;;;;3.68;100.00;100308.47;5038725;28;19928;-68
2021/11/23 05:00:35;;;;;;;;;;;;;;;3.32;100.00;100303.59;5027515;28;19916;-68
2021/11/23 05:03:00;;;;;;;;;;;;;;;3.66;100.00;100307.56;5045195;28;20387;-68
2021/11/23 05:05:26;;;;;;;;;;;;;;;3.82;100.00;100305.28;5045502;28;20800;-68
2021/11/23 05:07:51;;;;;;;;;;;;;;;3.99;100.00;100306.41;5045522;28;20361;-68
2021/11/23 05:10:17;;;;;;;;;;;;;;;3.96;100.00;100293.63;5026189;28;19921;-68
2021/11/23 05:12:43;;;;;;;;;;;;;;;3.91;100.00;100305.44;5026595;28;19943;-68
2021/11/23 05:15:09;;;;;;;;;;;;;;;3.99;100.00;100298.75;5045282;28;19913;-68
2021/11/23 05:17:34;;;;;;;;;;;;;;;3.93;100.00;100302.06;5024327;28;20545;-68
2021/11/23 05:19:59;;;;;;;;;;;;;;;3.93;100.00;100302.06;5042100;28;19921;-68
2021/11/23 05:22:25;;;;;;;;;;;;;;;3.90;100.00;100303.72;5042401;28;19950;-68
2021/11/23 05:24:50;;;;;;;;;;;;;;;3.84;100.00;100308.72;5041016;28;20488;-68
2021/11/23 05:27:16;;;;;;;;;;;;;;;3.82;100.00;100302.75;5042858;28;20031;-68
2021/11/23 05:29:41;;;;;;;;;;;;;;;3.99;100.00;100301.31;5023961;28;20545;-68
2021/11/23 05:32:07;;;;;;;;;;;;;;;4.02;100.00;100296.28;5042300;28;19924;-68
2021/11/23 05:34:32;;;;;;;;;;;;;;;4.07;100.00;100294.66;5041585;28;19917;-68
2021/11/23 05:36:57;;;;;;;;;;;;;;;4.01;100.00;100292.00;5041267;28;19921;-68
2021/11/23 05:39:23;;;;;;;;;;;;;;;4.14;100.00;100298.16;5024236;28;20579;-68
2021/11/23 05:41:49;;;;;;;;;;;;;;;4.13;100.00;100301.53;5041903;28;19928;-68
2021/11/23 05:44:15;;;;;;;;;;;;;;;3.79;100.00;100290.81;5040831;28;19928;-68
2021/11/23 05:46:41;;;;;;;;;;;;;;;3.88;100.00;100296.06;5042094;28;19917;-68
2021/11/23 05:49:06;;;;;;;;;;;;;;;3.95;100.00;100292.78;5023211;28;19927;-68
2021/11/23 05:51:31;;;;;;;;;;;;;;;4.21;100.00;100294.00;5041273;28;19917;-68
2021/11/23 05:53:57;;;;;;;;;;;;;;;4.04;100.00;100297.16;5040920;28;19916;-68
2021/11/23 05:57:00;;;;;;;;;;;;;;;3.88;100.00;100295.22;5040520;28;19959;-68
2021/11/23 05:59:25;;;;;;;;;;;;;;;3.88;100.00;100290.13;5039659;28;20390;-68
2021/11/23 06:01:55;;;;;;;;;;;;;;;4.18;100.00;100290.56;5039706;28;19912;-68
2021/11/23 06:04:23;;;;;;;;;;;;;;;4.18;100.00;100302.47;5040825;28;19916;-68
2021/11/23 06:06:51;;;;;;;;;;;;;;;4.29;100.00;100302.59;5041034;28;19923;-69
2021/11/23 06:09:19;;;;;;;;;;;;;;;4.21;100.00;100297.41;5037646;28;20292;-69
2021/11/23 06:11:52;;;;;;;;;;;;;;;4.14;100.00;100301.53;5041876;28;19920;-68
2021/11/23 06:14:20;;;;;;;;;;;;;;;4.05;100.00;100303.97;5036407;28;19919;-68
2021/11/23 06:16:47;;;;;;;;;;;;;;;4.16;100.00;100310.06;5023857;28;20822;-68
2021/11/23 06:19:16;;;;;;;;;;;;;;;4.30;100.00;100304.31;5024183;28;20039;-68
2021/11/23 06:21:42;;;;;;;;;;;;;;;4.18;100.00;100305.88;5037261;28;19929;-69
2021/11/23 06:24:08;;;;;;;;;;;;;;;4.44;100.00;100307.06;5039243;28;20412;-68
2021/11/23 06:26:35;;;;;;;;;;;;;;;4.39;100.00;100309.56;5039586;28;20817;-68
2021/11/23 06:29:07;;;;;;;;;;;;;;;4.45;100.00;100308.78;5041539;28;20540;-68
2021/11/23 06:31:34;;;;;;;;;;;;;;;4.43;100.00;100316.44;5021521;28;20016;-68
2021/11/23 06:34:00;;;;;;;;;;;;;;;4.37;100.00;100311.22;5023109;28;19917;-68
2021/11/23 06:36:28;;;;;;;;;;;;;;;4.53;100.00;100320.81;5039888;28;19921;-69
2021/11/23 06:38:56;;;;;;;;;;;;;;;4.06;100.00;100326.09;5022786;28;20379;-69
2021/11/23 06:41:22;;;;;;;;;;;;;;;4.16;100.00;100324.53;5040828;28;19928;-68
2021/11/23 06:43:47;;;;;;;;;;;;;;;4.55;100.00;100324.25;5040909;28;19917;-68
2021/11/23 06:46:12;;;;;;;;;;;;;;;4.59;100.00;100320.91;5041724;28;19974;-68
2021/11/23 06:51:42;;;;;;;;;;;;;;;4.39;100.00;100324.88;5041989;28;19966;-69
2021/11/23 06:54:07;;;;;;;;;;;;;;;4.59;100.00;100333.66;5041326;28;19917;-68
2021/11/23 06:56:34;;;;;;;;;;;;;;;4.67;100.00;100332.88;5041345;28;20603;-68
2021/11/23 06:59:01;;;;;;;;;;;;;;;4.84;100.00;100326.31;5023617;28;20355;-68
2021/11/23 07:01:26;;;;;;;;;;;;;;;4.76;100.00;100333.00;5039984;28;20638;-68
2021/11/23 07:03:52;;;;;;;;;;;;;;;4.85;100.00;100329.72;5041096;28;19921;-68
2021/11/23 07:06:17;;;;;;;;;;;;;;;4.82;100.00;100335.66;5041491;28;19931;-68
2021/11/23 07:08:42;;;;;;;;;;;;;;;4.52;100.00;100336.97;5023656;28;20269;-68
2021/11/23 07:11:08;;;;;;;;;;;;;;;4.40;100.00;100346.97;5040603;28;19950;-69
2021/11/23 07:13:34;;;;;;;;;;;;;;;4.37;100.00;100359.69;5007068;28;19917;-69
2021/11/23 07:16:03;;;;;;;;;;;;;;;4.77;100.00;100368.78;5023958;28;19920;-68
2021/11/23 07:18:29;;;;;;;;;;;;;;;4.61;100.00;100372.81;5041290;28;20083;-68
2021/11/23 07:21:01;;;;;;;;;;;;;;;4.76;100.00;100371.28;5040104;28;19948;-69
2021/11/23 07:23:27;;;;;;;;;;;;;;;4.82;100.00;100372.22;5037423;28;19932;-69
2021/11/23 07:25:55;;;;;;;;;;;;;;;4.97;100.00;100369.03;5039658;28;19952;-68
2021/11/23 07:28:21;;;;;;;;;;;;;;;4.63;100.00;100380.50;5039026;28;19945;-69
2021/11/23 07:30:54;;;;;;;;;;;;;;;4.46;100.00;100375.13;5021333;28;20452;-68
2021/11/23 07:33:28;;;;;;;;;;;;;;;4.17;100.00;100385.75;5039577;28;20342;-68
2021/11/23 07:36:04;;;;;;;;;;;;;;;;;;;;;
2021/11/23 07:38:30;;;;;;;;;;;;;;;4.71;100.00;100394.19;5039737;28;19924;-67
2021/11/23 07:40:55;;;;;;;;;;;;;;;4.76;100.00;100396.81;5022471;28;19925;-67
2021/11/23 07:43:23;;;;;;;;;;;;;;;4.36;100.00;100397.09;5041696;28;20387;-67
2021/11/23 07:45:58;;;;;;;;;;;;;;;4.80;100.00;100398.56;5023653;28;19924;-67
2021/11/23 07:48:23;;;;;;;;;;;;;;;4.73;100.00;100402.72;5040366;28;19921;-67
2021/11/23 07:50:54;;;;;;;;;;;;;;;4.89;100.00;100406.38;5024398;28;20384;-69
2021/11/23 07:53:22;;;;;;;;;;;;;;;5.12;100.00;100408.38;5038471;28;19999;-69
2021/11/23 07:55:51;;;;;;;;;;;;;;;4.94;100.00;100407.28;5046797;28;20402;-69
2021/11/23 07:58:17;;;;;;;;;;;;;;;4.91;100.00;100407.25;5029040;28;20345;-70
2021/11/23 08:00:47;;;;;;;;;;;;;;;5.31;100.00;100412.00;5046132;28;20471;-70
2021/11/23 08:03:13;;;;;;;;;;;;;;;5.07;100.00;100415.13;5048060;28;19917;-69
2021/11/23 08:05:41;;;;;;;;;;;;;;;5.39;100.00;100415.50;5050907;28;19913;-70
2021/11/23 08:08:08;;;;;;;;;;;;;;;5.24;100.00;100414.50;5046518;28;19913;-70
2021/11/23 08:10:33;;;;;;;;;;;;;;;5.25;100.00;100417.91;5045873;28;19913;-70
2021/11/23 08:12:59;;;;;;;;;;;;;;;5.42;100.00;100406.16;5046477;28;19916;-70
2021/11/23 08:15:24;;;;;;;;;;;;;;;5.47;100.00;100408.78;5045997;28;20371;-70
2021/11/23 08:17:51;;;;;;;;;;;;;;;5.63;100.00;100405.56;5028650;28;19916;-70
2021/11/23 08:20:18;;;;;;;;;;;;;;;5.56;100.00;100402.91;5048637;28;19913;-71
2021/11/23 08:22:44;;;;;;;;;;;;;;;5.44;100.00;100399.38;5029089;28;19920;-70
2021/11/23 08:25:10;;;;;;;;;;;;;;;5.49;100.00;100390.91;5046736;28;19921;-70
2021/11/23 08:27:35;;;;;;;;;;;;;;;5.76;100.00;100403.13;5046281;28;20012;-70
2021/11/23 08:30:26;;;;;;;;;;;;;;;5.52;100.00;100393.50;5040464;28;19921;-67
2021/11/23 08:32:51;;;;;;;;;;;;;;;5.61;100.00;100396.16;5026249;28;19917;-69
2021/11/23 08:35:18;;;;;;;;;;;;;;;5.48;100.00;100396.88;5025169;28;19920;-70
2021/11/23 08:37:43;;;;;;;;;;;;;;;5.33;100.00;100405.22;5027249;28;20012;-70
2021/11/23 08:40:09;;;;;;;;;;;;;;;5.41;100.00;100409.56;5028628;28;20004;-69
2021/11/23 08:42:35;;;;;;;;;;;;;;;5.48;100.00;100409.66;5028963;28;19913;-70
2021/11/23 08:45:00;;;;;;;;;;;;;;;5.18;100.00;100428.88;5029684;28;19913;-70
2021/11/23 08:47:26;;;;;;;;;;;;;;;5.53;100.00;100425.88;5028586;28;19913;-70
2021/11/23 08:49:56;;;;;;;;;;;;;;;5.73;100.00;100433.78;5028384;28;19917;-70
2021/11/23 08:52:22;;;;;;;;;;;;;;;5.66;100.00;100426.03;5034401;28;19917;-69
2021/11/23 08:54:50;;;;;;;;;;;;;;;5.68;100.00;100437.97;5026676;28;20369;-70
2021/11/23 08:57:22;;;;;;;;;;;;;;;5.42;100.00;100438.53;5029076;28;19924;-70
2021/11/23 08:59:49;;;;;;;;;;;;;;;5.13;100.00;100449.25;5016165;28;19913;-70
2021/11/23 09:02:21;;;;;;;;;;;;;;;5.57;100.00;100458.31;5033216;28;19924;-69
2021/11/23 09:04:49;;;;;;;;;;;;;;;5.68;100.00;100463.53;5027631;28;19913;-69
2021/11/23 09:07:17;;;;;;;;;;;;;;;5.21;100.00;100472.31;5027124;28;19995;-69
2021/11/23 09:09:43;;;;;;;;;;;;;;;5.87;100.00;100476.53;5028561;28;20550;-69
2021/11/23 09:12:13;;;;;;;;;;;;;;;5.35;100.00;100472.50;5028689;28;19909;-70
2021/11/23 09:14:41;;;;;;;;;;;;;;;5.43;100.00;100470.91;5032665;28;20372;-70
2021/11/23 09:17:12;;;;;;;;;;;;;;;5.25;100.00;100484.31;5027173;28;20027;-70
2021/11/23 09:19:44;;;;;;;;;;;;;;;5.62;100.00;100500.09;4988428;28;19953;-69
2021/11/23 09:22:12;;;;;;;;;;;;;;;5.58;100.00;100499.19;4992327;28;20012;-70
2021/11/23 09:24:37;;;;;;;;;;;;;;;5.56;100.00;100495.75;4988497;28;19921;-70
2021/11/23 09:27:06;;;;;;;;;;;;;;;5.38;100.00;100505.75;4989598;28;19914;-69
2021/11/23 09:30:03;;;;;;;;;;;;;;;5.36;100.00;100513.41;4989318;28;20381;-70
2021/11/23 09:33:01;;;;;;;;;;;;;;;5.66;100.00;100517.19;4994838;28;19926;-69
2021/11/23 09:35:38;;;;;;;;;;;;;;;5.36;100.00;100525.28;4989510;28;19961;-69
2021/11/23 09:38:07;;;;;;;;;;;;;;;5.49;100.00;100518.66;4989168;28;20404;-69
2021/11/23 09:40:33;;;;;;;;;;;;;;;5.40;100.00;100522.81;4989854;28;19918;-70
2021/11/23 09:43:00;;;;;;;;;;;;;;;5.67;100.00;100524.00;5007830;28;19944;-69
2021/11/23 09:45:30;;;;;;;;;;;;;;;5.60;100.00;100524.78;5009110;28;19914;-70
2021/11/23 09:48:00;;;;;;;;;;;;;;;5.36;100.00;100522.75;5008672;28;19980;-69
2021/11/23 09:50:34;;;;;;;;;;;;;;;5.85;100.00;100528.50;5008902;28;19920;-69
2021/11/23 09:53:01;;;;;;;;;;;;;;;5.72;100.00;100516.41;5011647;28;19914;-70
2021/11/23 09:55:27;;;;;;;;;;;;;;;6.00;100.00;100507.41;5008676;28;19913;-69
2021/11/23 09:58:01;;;;;;;;;;;;;;;5.83;100.00;100510.56;5008731;28;20373;-70
2021/11/23 10:00:35;;;;;;;;;;;;;;;5.67;100.00;100503.56;5008833;28;19914;-70
2021/11/23 10:03:06;;;;;;;;;;;;;;;5.75;100.00;100512.19;5007753;28;19954;-69
2021/11/23 10:05:34;;;;;;;;;;;;;;;6.07;100.00;100509.19;5007461;28;19921;-69
2021/11/23 10:08:05;;;;;;;;;;;;;;;6.26;100.00;100500.84;5008346;28;19913;-70
2021/11/23 10:10:45;;;;;;;;;;;;;;;6.21;100.00;100493.97;5003044;28;19924;-69
2021/11/23 10:13:37;;;;;;;;;;;;;;;6.02;100.00;100498.00;5009320;28;19949;-69
2021/11/23 10:16:22;;;;;;;;;;;;;;;6.24;100.00;100492.28;5005101;28;19967;-70
2021/11/23 10:19:08;;;;;;;;;;;;;;;5.67;100.00;100488.22;4989222;28;19971;-71
2021/11/23 10:21:39;;;;;;;;;;;;;;;6.12;100.00;100489.63;4998662;28;19914;-69
2021/11/23 10:27:19;;;;;;;;;;;;;;;5.92;100.00;100491.06;4988480;28;19940;-69
2021/11/23 10:29:52;;;;;;;;;;;;;;;6.31;100.00;100493.19;4988453;28;19948;-69
2021/11/23 10:32:17;;;;;;;;;;;;;;;6.11;100.00;100480.22;5025596;28;19921;-69
2021/11/23 10:34:43;;;;;;;;;;;;;;;5.84;100.00;100479.06;5026749;28;19913;-69
2021/11/23 10:37:09;;;;;;;;;;;;;;;5.91;100.00;100476.56;5028231;28;20561;-69
2021/11/23 10:39:34;;;;;;;;;;;;;;;6.34;100.00;100474.47;5010048;28;19919;-69
2021/11/23 10:42:00;;;;;;;;;;;;;;;6.46;100.00;100472.03;5027503;28;19917;-69
2021/11/23 10:44:31;;;;;;;;;;;;;;;6.62;100.00;100458.50;5010082;28;19913;-69
2021/11/23 10:47:00;;;;;;;;;;;;;;;6.44;100.00;100458.34;5033320;28;20018;-69
2021/11/23 10:49:26;;;;;;;;;;;;;;;6.37;100.00;100457.44;5028720;28;19917;-69
2021/11/23 10:51:58;;;;;;;;;;;;;;;6.29;100.00;100464.19;5028650;28;20368;-70
2021/11/23 10:54:25;;;;;;;;;;;;;;;5.86;100.00;100463.72;5024913;28;19923;-67
2021/11/23 10:57:00;;;;;;;;;;;;;;;6.07;100.00;100473.38;5041908;28;19924;-70
2021/11/23 10:59:38;;;;;;;;;;;;;;;5.83;100.00;100469.66;5045010;28;20017;-64
2021/11/23 11:02:03;;;;;;;;;;;;;;;5.73;100.00;100472.97;5043652;28;19913;-68
2021/11/23 11:04:31;;;;;;;;;;;;;;;5.81;100.00;100475.59;5046447;28;19940;-69
2021/11/23 11:06:57;;;;;;;;;;;;;;;5.96;100.00;100480.94;5036683;28;19917;-69
2021/11/23 11:09:26;;;;;;;;;;;;;;;6.65;100.00;100485.81;5046690;28;20498;-69
2021/11/23 11:11:54;;;;;;;;;;;;;;;6.57;100.00;100480.66;5029453;28;19923;-70
2021/11/23 11:14:21;;;;;;;;;;;;;;;6.01;100.00;100484.38;5044002;28;20394;-69
2021/11/23 11:16:52;;;;;;;;;;;;;;;6.62;100.00;100478.97;5028698;28;19966;-68
2021/11/23 11:19:18;;;;;;;;;;;;;;;6.69;100.00;100475.59;5046788;28;20423;-69
2021/11/23 11:21:47;;;;;;;;;;;;;;;6.67;100.00;100461.94;5047254;28;19920;-69
2021/11/23 11:27:21;;;;;;;;;;;;;;;6.30;100.00;100470.19;5047083;28;20295;-69
2021/11/23 11:29:46;;;;;;;;;;;;;;;7.02;100.00;100465.59;4999938;28;19952;-69
2021/11/23 11:32:33;;;;;;;;;;;;;;;6.90;100.00;100453.56;5046350;28;19956;-69
2021/11/23 11:35:20;;;;;;;;;;;;;;;6.31;100.00;100451.41;5047024;28;19920;-69
2021/11/23 11:37:46;;;;;;;;;;;;;;;6.98;100.00;100446.78;5026954;28;19917;-70
2021/11/23 11:40:25;;;;;;;;;;;;;;;6.24;100.00;100445.38;5047023;28;19921;-69
2021/11/23 11:43:14;;;;;;;;;;;;;;;6.89;100.00;100441.63;5046797;28;19913;-69
2021/11/23 11:45:48;;;;;;;;;;;;;;;6.58;100.00;100435.44;4946254;29;19914;-69
2021/11/23 11:51:50;;;;;;;;;;;;;;;6.63;100.00;100429.47;5047061;28;19959;-69
2021/11/23 14:08:48;;;;;;;;;;;;;;;6.17;85.02;100503.31;5026889;28;20352;-69
2021/11/23 14:11:14;;;;;;;;;;;;;;;5.81;84.04;100498.63;5030743;28;19921;-70
2021/11/23 14:13:40;;;;;;;;;;;;;;;5.72;81.16;100507.03;5048113;28;20007;-70
2021/11/23 14:16:08;;;;;;;;;;;;;;;5.65;79.68;100505.25;5048404;28;19950;-69
2021/11/23 14:21:27;;;;;;;;;;;;;;;5.42;79.92;100507.50;5005236;28;19924;-69
2021/11/23 14:26:58;;;;;;;;;;;;;;;5.40;79.22;100517.69;5047968;28;19943;-70
2021/11/23 14:29:27;;;;;;;;;;;;;;;5.50;78.60;100525.50;5047784;28;20438;-70
2021/11/23 14:31:56;;;;;;;;;;;;;;;5.29;79.68;100520.94;5048586;28;19959;-70
2021/11/23 14:34:23;;;;;;;;;;;;;;;5.41;78.36;100522.00;5047464;28;19912;-70
2021/11/23 14:36:49;;;;;;;;;;;;;;;5.27;78.89;100523.50;5046436;28;19917;-70
2021/11/23 14:39:16;;;;;;;;;;;;;;;5.72;77.46;100532.59;5028253;28;20402;-68
2021/11/23 14:41:42;;;;;;;;;;;;;;;5.66;78.92;100523.16;5026854;28;20670;-69
2021/11/23 14:44:10;;;;;;;;;;;;;;;5.70;77.26;100521.47;5017049;28;19993;-69
2021/11/23 14:46:43;;;;;;;;;;;;;;;5.62;77.84;100518.00;5027933;28;20347;-69
2021/11/23 14:49:31;;;;;;;;;;;;;;;5.52;77.09;100521.25;5040244;28;19948;-69
2021/11/23 14:52:00;;;;;;;;;;;;;;;5.43;77.00;100517.75;5042363;28;19913;-70
2021/11/23 14:54:31;;;;;;;;;;;;;;;5.48;75.35;100522.06;5044237;28;20390;-70
2021/11/23 14:57:00;;;;;;;;;;;;;;;5.42;75.12;100523.69;5042360;28;19916;-70
2021/11/23 14:59:33;;;;;;;;;;;;;;;5.45;75.66;100521.19;5043994;28;19913;-69
2021/11/23 15:01:58;;;;;;;;;;;;;;;5.44;76.02;100522.00;5044162;28;19992;-71
2021/11/23 15:04:24;;;;;;;;;;;;;;;5.47;74.95;100530.56;5043877;28;19995;-68
2021/11/23 15:06:51;;;;;;;;;;;;;;;5.56;74.66;100528.13;5026107;28;19963;-69
2021/11/23 15:09:21;;;;;;;;;;;;;;;5.39;74.31;100526.22;5042080;28;20339;-69
2021/11/23 15:11:47;;;;;;;;;;;;;;;5.56;74.62;100520.47;5026337;28;19913;-69
2021/11/23 15:14:13;;;;;;;;;;;;;;;5.48;73.51;100537.41;5042720;28;19955;-69
2021/11/23 15:17:07;;;;;;;;;;;;;;;5.95;72.94;100530.34;5031821;28;20082;-70